Time,TemperatureF,DewpointF,PressureIn,WindDirection,WindDirectionDegrees,WindSpeedMPH,WindSpeedGustMPH,Humidity,HourlyPrecipIn,Conditions,Clouds,dailyrainin,SoftwareType,DateUTC
2013-02-07 00:00:00,27.8,22.1,30.31,East,90,0.0,0.0,79,0.00,,,0.00,Wunderground v.1.12,2013-02-07 05:00:00,
2013-02-07 00:09:00,27.6,21.9,30.31,East,90,0.0,0.0,79,0.00,,,0.00,Wunderground v.1.12,2013-02-07 05:09:00,
2013-02-07 00:20:00,27.5,21.8,30.31,East,90,0.0,0.0,79,0.00,,,0.00,Wunderground v.1.12,2013-02-07 05:20:00,
2013-02-07 00:29:00,27.3,21.9,30.31,East,90,0.0,0.0,80,0.00,,,0.00,Wunderground v.1.12,2013-02-07 05:29:00,
2013-02-07 00:39:00,27.3,21.9,30.32,East,90,0.0,0.0,80,0.00,,,0.00,Wunderground v.1.12,2013-02-07 05:39:00,
2013-02-07 00:49:00,27.3,21.9,30.32,East,90,0.0,0.0,80,0.00,,,0.00,Wunderground v.1.12,2013-02-07 05:49:00,
2013-02-07 01:00:00,27.2,21.8,30.33,East,90,0.0,0.0,80,0.00,,,0.00,Wunderground v.1.12,2013-02-07 06:00:00,
2013-02-07 01:10:00,27.0,21.7,30.33,North,32767,0.0,0.0,80,0.00,,,0.00,Wunderground v.1.12,2013-02-07 06:10:00,
2013-02-07 01:20:00,27.2,22.7,30.33,North,360,0.0,0.0,83,0.00,,,0.00,Wunderground v.1.12,2013-02-07 06:20:00,
2013-02-07 01:30:00,27.3,23.1,30.34,North,32767,0.0,0.0,84,0.00,,,0.00,Wunderground v.1.12,2013-02-07 06:30:00,
2013-02-07 01:39:00,27.3,23.4,30.34,North,360,0.0,0.0,85,0.00,,,0.00,Wunderground v.1.12,2013-02-07 06:39:00,
2013-02-07 01:50:00,27.2,23.3,30.34,North,32767,0.0,0.0,85,0.00,,,0.00,Wunderground v.1.12,2013-02-07 06:50:00,
2013-02-07 01:59:00,27.1,23.2,30.36,North,32767,0.0,0.0,85,0.00,,,0.00,Wunderground v.1.12,2013-02-07 06:59:00,
2013-02-07 02:09:00,26.9,23.0,30.36,North,32767,0.0,0.0,85,0.00,,,0.00,Wunderground v.1.12,2013-02-07 07:09:00,
2013-02-07 02:20:00,26.6,22.7,30.36,North,360,0.0,0.0,85,0.00,,,0.00,Wunderground v.1.12,2013-02-07 07:20:00,
2013-02-07 02:30:00,26.3,22.4,30.36,North,32767,0.0,0.0,85,0.00,,,0.00,Wunderground v.1.12,2013-02-07 07:30:00,
2013-02-07 02:40:00,26.3,22.7,30.36,North,360,0.0,0.0,86,0.00,,,0.00,Wunderground v.1.12,2013-02-07 07:40:00,
2013-02-07 02:50:00,26.2,22.6,30.36,North,360,0.0,0.0,86,0.00,,,0.00,Wunderground v.1.12,2013-02-07 07:50:00,
2013-02-07 02:59:00,26.1,22.5,30.36,North,32767,0.0,0.0,86,0.00,,,0.00,Wunderground v.1.12,2013-02-07 07:59:00,
2013-02-07 03:10:00,26.0,22.4,30.36,North,32767,0.0,0.0,86,0.00,,,0.00,Wunderground v.1.12,2013-02-07 08:10:00,
2013-02-07 03:20:00,26.0,22.7,30.36,North,32767,0.0,0.0,87,0.00,,,0.00,Wunderground v.1.12,2013-02-07 08:20:00,
2013-02-07 03:29:00,26.0,22.7,30.36,North,360,0.0,0.0,87,0.00,,,0.00,Wunderground v.1.12,2013-02-07 08:29:00,
2013-02-07 03:40:00,25.9,22.6,30.34,North,32767,0.0,0.0,87,0.00,,,0.00,Wunderground v.1.12,2013-02-07 08:40:00,
2013-02-07 03:49:00,26.0,22.7,30.34,North,360,0.0,0.0,87,0.00,,,0.00,Wunderground v.1.12,2013-02-07 08:49:00,
2013-02-07 04:00:00,26.0,22.7,30.34,North,360,0.0,0.0,87,0.00,,,0.00,Wunderground v.1.12,2013-02-07 09:00:00,
2013-02-07 04:09:00,26.0,22.7,30.34,North,360,0.0,0.0,87,0.00,,,0.00,Wunderground v.1.12,2013-02-07 09:09:00,
2013-02-07 04:20:00,26.0,22.7,30.34,North,32767,0.0,0.0,87,0.00,,,0.00,Wunderground v.1.12,2013-02-07 09:20:00,
2013-02-07 04:30:00,26.0,22.7,30.34,North,360,0.0,0.0,87,0.00,,,0.00,Wunderground v.1.12,2013-02-07 09:30:00,
2013-02-07 04:40:00,26.0,22.7,30.34,North,32767,0.0,0.0,87,0.00,,,0.00,Wunderground v.1.12,2013-02-07 09:40:00,
2013-02-07 04:50:00,26.0,22.7,30.34,North,32767,0.0,0.0,87,0.00,,,0.00,Wunderground v.1.12,2013-02-07 09:50:00,
2013-02-07 04:59:00,26.1,22.8,30.34,North,32767,0.0,0.0,87,0.00,,,0.00,Wunderground v.1.12,2013-02-07 09:59:00,
2013-02-07 05:10:00,26.3,23.0,30.35,North,32767,0.0,0.0,87,0.00,,,0.00,Wunderground v.1.12,2013-02-07 10:10:00,
2013-02-07 05:20:00,26.5,23.2,30.35,North,32767,0.0,0.0,87,0.00,,,0.00,Wunderground v.1.12,2013-02-07 10:20:00,
2013-02-07 05:30:00,26.5,23.4,30.36,North,32767,0.0,0.0,88,0.00,,,0.00,Wunderground v.1.12,2013-02-07 10:30:00,
2013-02-07 05:40:00,26.6,23.5,30.36,North,32767,0.0,0.0,88,0.00,,,0.00,Wunderground v.1.12,2013-02-07 10:40:00,
2013-02-07 05:49:00,26.6,23.5,30.36,North,360,0.0,0.0,88,0.00,,,0.00,Wunderground v.1.12,2013-02-07 10:49:00,
2013-02-07 06:00:00,26.6,23.5,30.36,North,360,0.0,0.0,88,0.00,,,0.00,Wunderground v.1.12,2013-02-07 11:00:00,
2013-02-07 06:10:00,26.6,23.5,30.37,North,32767,0.0,0.0,88,0.00,,,0.00,Wunderground v.1.12,2013-02-07 11:10:00,
2013-02-07 06:20:00,26.4,23.3,30.37,North,32767,0.0,0.0,88,0.00,,,0.00,Wunderground v.1.12,2013-02-07 11:20:00,
2013-02-07 06:29:00,26.3,23.2,30.38,North,32767,0.0,0.0,88,0.00,,,0.00,Wunderground v.1.12,2013-02-07 11:29:00,
2013-02-07 06:40:00,26.3,23.2,30.38,North,32767,0.0,0.0,88,0.00,,,0.00,Wunderground v.1.12,2013-02-07 11:40:00,
2013-02-07 06:49:00,26.5,23.7,30.38,North,32767,0.0,0.0,89,0.00,,,0.00,Wunderground v.1.12,2013-02-07 11:49:00,
2013-02-07 07:00:00,26.7,23.9,30.39,North,32767,0.0,0.0,89,0.00,,,0.00,Wunderground v.1.12,2013-02-07 12:00:00,
2013-02-07 07:09:00,27.0,24.2,30.40,North,32767,0.0,0.0,89,0.00,,,0.00,Wunderground v.1.12,2013-02-07 12:09:00,
2013-02-07 07:20:00,27.3,24.5,30.40,North,32767,0.0,0.0,89,0.00,,,0.00,Wunderground v.1.12,2013-02-07 12:20:00,
2013-02-07 07:30:00,27.6,24.8,30.40,North,32767,0.0,0.0,89,0.00,,,0.00,Wunderground v.1.12,2013-02-07 12:30:00,
2013-02-07 07:39:00,27.9,25.1,30.40,North,32767,0.0,0.0,89,0.00,,,0.00,Wunderground v.1.12,2013-02-07 12:39:00,
2013-02-07 07:49:00,28.2,25.4,30.40,North,32767,0.0,0.0,89,0.00,,,0.00,Wunderground v.1.12,2013-02-07 12:49:00,
2013-02-07 08:00:00,28.6,25.5,30.40,North,32767,0.0,0.0,88,0.00,,,0.00,Wunderground v.1.12,2013-02-07 13:00:00,
2013-02-07 08:10:00,29.0,25.9,30.40,North,32767,0.0,0.0,88,0.00,,,0.00,Wunderground v.1.12,2013-02-07 13:10:00,
2013-02-07 08:20:00,29.5,26.4,30.40,North,32767,0.0,0.0,88,0.00,,,0.00,Wunderground v.1.12,2013-02-07 13:20:00,
2013-02-07 08:29:00,30.2,27.1,30.40,North,32767,0.0,0.0,88,0.00,,,0.00,Wunderground v.1.12,2013-02-07 13:29:00,
2013-02-07 08:40:00,30.9,27.8,30.40,North,32767,0.0,0.0,88,0.00,,,0.00,Wunderground v.1.12,2013-02-07 13:40:00,
2013-02-07 08:50:00,31.7,28.3,30.40,North,32767,0.0,0.0,87,0.00,,,0.00,Wunderground v.1.12,2013-02-07 13:50:00,
2013-02-07 08:59:00,32.6,27.4,30.41,North,360,0.0,0.0,81,0.00,,,0.00,Wunderground v.1.12,2013-02-07 13:59:00,
2013-02-07 09:10:00,33.5,26.7,30.41,North,32767,0.0,0.0,76,0.00,,,0.00,Wunderground v.1.12,2013-02-07 14:10:00,
2013-02-07 09:20:00,33.9,26.5,30.41,North,32767,0.0,0.0,74,0.00,,,0.00,Wunderground v.1.12,2013-02-07 14:20:00,
2013-02-07 09:30:00,34.2,26.1,30.41,North,32767,0.0,0.0,72,0.00,,,0.00,Wunderground v.1.12,2013-02-07 14:30:00,
2013-02-07 09:40:00,34.3,25.9,30.42,North,360,0.0,0.0,71,0.00,,,0.00,Wunderground v.1.12,2013-02-07 14:40:00,
2013-02-07 09:49:00,34.4,26.0,30.42,North,32767,0.0,0.0,71,0.00,,,0.00,Wunderground v.1.12,2013-02-07 14:49:00,
2013-02-07 10:00:00,34.9,26.4,30.42,North,360,0.0,0.0,71,0.00,,,0.00,Wunderground v.1.12,2013-02-07 15:00:00,
2013-02-07 10:10:00,35.3,26.8,30.42,North,32767,0.0,0.0,71,0.00,,,0.00,Wunderground v.1.12,2013-02-07 15:10:00,
2013-02-07 10:20:00,35.3,26.5,30.42,North,360,0.0,0.0,70,0.00,,,0.00,Wunderground v.1.12,2013-02-07 15:20:00,
2013-02-07 10:29:00,35.4,26.6,30.41,North,360,0.0,0.0,70,0.00,,,0.00,Wunderground v.1.12,2013-02-07 15:29:00,
2013-02-07 10:40:00,35.7,26.5,30.41,North,32767,0.0,0.0,69,0.00,,,0.00,Wunderground v.1.12,2013-02-07 15:40:00,
2013-02-07 10:49:00,35.9,27.1,30.41,North,32767,0.0,0.0,70,0.00,,,0.00,Wunderground v.1.12,2013-02-07 15:49:00,
2013-02-07 11:00:00,36.1,26.9,30.41,North,32767,0.0,0.0,69,0.00,,,0.00,Wunderground v.1.12,2013-02-07 16:00:00,
2013-02-07 11:09:00,36.2,27.4,30.40,North,32767,0.0,0.0,70,0.00,,,0.00,Wunderground v.1.12,2013-02-07 16:09:00,
2013-02-07 11:20:00,36.7,28.2,30.40,North,32767,0.0,0.0,71,0.00,,,0.00,Wunderground v.1.12,2013-02-07 16:20:00,
2013-02-07 11:30:00,37.0,27.8,30.40,North,360,0.0,0.0,69,0.00,,,0.00,Wunderground v.1.12,2013-02-07 16:30:00,
2013-02-07 11:39:00,37.1,28.2,30.39,North,32767,0.0,0.0,70,0.00,,,0.00,Wunderground v.1.12,2013-02-07 16:39:00,
2013-02-07 11:50:00,37.3,28.4,30.39,North,360,0.0,0.0,70,0.00,,,0.00,Wunderground v.1.12,2013-02-07 16:50:00,
2013-02-07 12:00:00,37.2,28.0,30.38,North,360,0.0,0.0,69,0.00,,,0.00,Wunderground v.1.12,2013-02-07 17:00:00,
2013-02-07 12:10:00,37.7,28.4,30.37,North,32767,0.0,0.0,69,0.00,,,0.00,Wunderground v.1.12,2013-02-07 17:10:00,
2013-02-07 12:20:00,38.1,28.8,30.37,North,32767,0.0,0.0,69,0.00,,,0.00,Wunderground v.1.12,2013-02-07 17:20:00,
2013-02-07 12:30:00,38.1,28.8,30.37,North,32767,0.0,0.0,69,0.00,,,0.00,Wunderground v.1.12,2013-02-07 17:30:00,
2013-02-07 12:40:00,38.1,28.5,30.35,North,360,0.0,0.0,68,0.00,,,0.00,Wunderground v.1.12,2013-02-07 17:40:00,
2013-02-07 12:49:00,38.0,28.7,30.35,North,360,0.0,0.0,69,0.00,,,0.00,Wunderground v.1.12,2013-02-07 17:49:00,
2013-02-07 13:00:00,38.0,28.4,30.35,North,32767,0.0,0.0,68,0.00,,,0.00,Wunderground v.1.12,2013-02-07 18:00:00,
2013-02-07 13:10:00,38.2,28.9,30.35,North,360,0.0,0.0,69,0.00,,,0.00,Wunderground v.1.12,2013-02-07 18:10:00,
2013-02-07 13:19:00,38.4,29.1,30.35,North,32767,0.0,0.0,69,0.00,,,0.00,Wunderground v.1.12,2013-02-07 18:19:00,
2013-02-07 13:30:00,38.7,29.4,30.34,North,32767,0.0,0.0,69,0.00,,,0.00,Wunderground v.1.12,2013-02-07 18:30:00,
2013-02-07 13:40:00,38.9,29.6,30.34,North,360,0.0,0.0,69,0.00,,,0.00,Wunderground v.1.12,2013-02-07 18:40:00,
2013-02-07 13:50:00,39.2,29.9,30.34,North,360,0.0,0.0,69,0.00,,,0.00,Wunderground v.1.12,2013-02-07 18:50:00,
2013-02-07 13:59:00,39.2,29.5,30.32,North,32767,0.0,0.0,68,0.00,,,0.00,Wunderground v.1.12,2013-02-07 18:59:00,
2013-02-07 14:10:00,39.2,29.2,30.32,North,32767,0.0,0.0,67,0.00,,,0.00,Wunderground v.1.12,2013-02-07 19:10:00,
2013-02-07 14:19:00,39.2,29.2,30.32,North,32767,0.0,0.0,67,0.00,,,0.00,Wunderground v.1.12,2013-02-07 19:19:00,
2013-02-07 14:30:00,39.9,29.8,30.31,ENE,65,0.0,3.0,67,0.00,,,0.00,Wunderground v.1.12,2013-02-07 19:30:00,
2013-02-07 14:40:00,40.2,27.4,30.30,ENE,58,1.0,1.0,60,0.00,,,0.00,Wunderground v.1.12,2013-02-07 19:40:00,
2013-02-07 14:50:00,40.5,26.4,30.30,NNE,32,1.0,1.0,57,0.00,,,0.00,Wunderground v.1.12,2013-02-07 19:50:00,
2013-02-07 15:00:00,40.5,26.9,30.30,NNE,20,1.0,3.0,58,0.00,,,0.00,Wunderground v.1.12,2013-02-07 20:00:00,
2013-02-07 15:09:00,40.3,27.5,30.29,NNE,30,1.0,1.0,60,0.00,,,0.00,Wunderground v.1.12,2013-02-07 20:09:00,
2013-02-07 15:19:00,40.2,27.0,30.29,NE,40,1.0,1.0,59,0.00,,,0.00,Wunderground v.1.12,2013-02-07 20:19:00,
2013-02-07 15:29:00,40.3,27.5,30.28,NE,48,0.0,0.0,60,0.00,,,0.00,Wunderground v.1.12,2013-02-07 20:29:00,
2013-02-07 15:40:00,40.3,27.5,30.28,NNE,17,1.0,2.0,60,0.00,,,0.00,Wunderground v.1.12,2013-02-07 20:40:00,
2013-02-07 15:49:00,40.2,27.8,30.28,NE,54,1.0,1.0,61,0.00,,,0.00,Wunderground v.1.12,2013-02-07 20:49:00,
2013-02-07 16:00:00,40.2,28.6,30.28,NNE,28,0.0,0.0,63,0.00,,,0.00,Wunderground v.1.12,2013-02-07 21:00:00,
2013-02-07 16:10:00,40.2,28.6,30.27,NNE,28,0.0,4.0,63,0.00,,,0.00,Wunderground v.1.12,2013-02-07 21:10:00,
2013-02-07 16:20:00,40.2,28.6,30.27,NNE,28,0.0,4.0,63,0.00,,,0.00,Wunderground v.1.12,2013-02-07 21:20:00,
2013-02-07 16:30:00,40.2,29.0,30.27,NNE,28,0.0,4.0,64,0.00,,,0.00,Wunderground v.1.12,2013-02-07 21:30:00,
2013-02-07 16:39:00,40.1,28.9,30.27,NNE,28,0.0,4.0,64,0.00,,,0.00,Wunderground v.1.12,2013-02-07 21:39:00,
2013-02-07 16:49:00,39.8,29.4,30.27,NNE,28,0.0,4.0,66,0.00,,,0.00,Wunderground v.1.12,2013-02-07 21:49:00,
2013-02-07 17:00:00,39.5,29.8,30.27,NNE,28,0.0,4.0,68,0.00,,,0.00,Wunderground v.1.12,2013-02-07 22:00:00,
2013-02-07 17:09:00,39.2,30.2,30.26,NNE,28,0.0,4.0,70,0.00,,,0.00,Wunderground v.1.12,2013-02-07 22:09:00,
2013-02-07 17:20:00,38.9,29.9,30.26,NNE,28,0.0,4.0,70,0.00,,,0.00,Wunderground v.1.12,2013-02-07 22:20:00,
2013-02-07 17:30:00,38.8,29.8,30.28,NNE,28,0.0,4.0,70,0.00,,,0.00,Wunderground v.1.12,2013-02-07 22:30:00,
2013-02-07 17:40:00,38.6,30.0,30.28,NNE,28,0.0,4.0,71,0.00,,,0.00,Wunderground v.1.12,2013-02-07 22:40:00,
2013-02-07 17:50:00,38.5,29.9,30.28,NNE,28,0.0,4.0,71,0.00,,,0.00,Wunderground v.1.12,2013-02-07 22:50:00,
2013-02-07 17:59:00,38.5,30.9,30.28,NNE,28,0.0,4.0,74,0.00,,,0.00,Wunderground v.1.12,2013-02-07 22:59:00,
2013-02-07 18:10:00,38.3,31.1,30.29,NNE,28,0.0,4.0,75,0.00,,,0.00,Wunderground v.1.12,2013-02-07 23:10:00,
2013-02-07 18:20:00,38.2,31.3,30.29,NNE,28,0.0,4.0,76,0.00,,,0.00,Wunderground v.1.12,2013-02-07 23:20:00,
2013-02-07 18:30:00,38.0,31.1,30.29,NNE,28,0.0,4.0,76,0.00,,,0.00,Wunderground v.1.12,2013-02-07 23:30:00,
2013-02-07 18:40:00,37.9,31.3,30.29,NNE,28,0.0,4.0,77,0.00,,,0.00,Wunderground v.1.12,2013-02-07 23:40:00,
2013-02-07 18:50:00,37.9,31.7,30.29,NNE,28,0.0,4.0,78,0.00,,,0.00,Wunderground v.1.12,2013-02-07 23:50:00,
2013-02-07 19:00:00,37.8,31.6,30.29,NNE,28,0.0,4.0,78,0.00,,,0.00,Wunderground v.1.12,2013-02-08 00:00:00,
2013-02-07 19:10:00,37.6,31.4,30.29,NNE,28,0.0,4.0,78,0.00,,,0.00,Wunderground v.1.12,2013-02-08 00:10:00,
2013-02-07 19:20:00,37.5,31.3,30.29,NNE,28,0.0,4.0,78,0.00,,,0.00,Wunderground v.1.12,2013-02-08 00:20:00,
2013-02-07 19:29:00,37.3,31.1,30.28,NNE,28,0.0,4.0,78,0.00,,,0.00,Wunderground v.1.12,2013-02-08 00:29:00,
2013-02-07 19:40:00,37.3,31.1,30.28,NNE,28,0.0,4.0,78,0.00,,,0.00,Wunderground v.1.12,2013-02-08 00:40:00,
2013-02-07 19:49:00,37.3,30.7,30.28,NNE,28,0.0,4.0,77,0.00,,,0.00,Wunderground v.1.12,2013-02-08 00:49:00,
2013-02-07 20:00:00,37.3,30.4,30.27,NNE,28,0.0,4.0,76,0.00,,,0.00,Wunderground v.1.12,2013-02-08 01:00:00,
2013-02-07 20:09:00,37.3,30.4,30.27,NNE,28,0.0,2.0,76,0.00,,,0.00,Wunderground v.1.12,2013-02-08 01:09:00,
2013-02-07 20:20:00,37.5,30.6,30.27,NNE,18,0.0,2.0,76,0.00,,,0.00,Wunderground v.1.12,2013-02-08 01:20:00,
2013-02-07 20:30:00,37.5,30.6,30.27,NE,49,0.0,2.0,76,0.00,,,0.00,Wunderground v.1.12,2013-02-08 01:30:00,
2013-02-07 20:40:00,37.5,30.6,30.26,NE,54,0.0,2.0,76,0.00,,,0.00,Wunderground v.1.12,2013-02-08 01:40:00,
2013-02-07 20:49:00,37.5,30.9,30.26,NNE,14,1.0,1.0,77,0.00,,,0.00,Wunderground v.1.12,2013-02-08 01:49:00,
2013-02-07 21:00:00,37.5,30.9,30.26,NE,35,0.0,2.0,77,0.00,,,0.00,Wunderground v.1.12,2013-02-08 02:00:00,
2013-02-07 21:10:00,37.3,30.4,30.25,NE,36,1.0,1.0,76,0.00,,,0.00,Wunderground v.1.12,2013-02-08 02:10:00,
2013-02-07 21:20:00,37.3,30.4,30.25,NE,51,0.0,2.0,76,0.00,,,0.00,Wunderground v.1.12,2013-02-08 02:20:00,
2013-02-07 21:29:00,37.2,30.0,30.25,North,11,1.0,1.0,75,0.00,,,0.00,Wunderground v.1.12,2013-02-08 02:29:00,
2013-02-07 21:40:00,37.0,29.5,30.25,NE,39,0.0,2.0,74,0.00,,,0.00,Wunderground v.1.12,2013-02-08 02:40:00,
2013-02-07 21:50:00,36.8,29.3,30.25,NE,49,1.0,1.0,74,0.00,,,0.00,Wunderground v.1.12,2013-02-08 02:50:00,
2013-02-07 22:00:00,36.6,29.1,30.24,North,10,0.0,2.0,74,0.00,,,0.00,Wunderground v.1.12,2013-02-08 03:00:00,
2013-02-07 22:10:00,36.5,29.0,30.23,NNE,31,1.0,2.0,74,0.00,,,0.00,Wunderground v.1.12,2013-02-08 03:10:00,
2013-02-07 22:20:00,36.2,28.0,30.23,SSE,165,1.0,1.0,72,0.00,,,0.00,Wunderground v.1.12,2013-02-08 03:20:00,
2013-02-07 22:29:00,36.0,27.8,30.22,NE,42,0.0,2.0,72,0.00,,,0.00,Wunderground v.1.12,2013-02-08 03:29:00,
2013-02-07 22:40:00,36.0,27.8,30.21,NNE,18,0.0,2.0,72,0.00,,,0.00,Wunderground v.1.12,2013-02-08 03:40:00,
2013-02-07 22:49:00,35.9,27.7,30.21,NE,51,0.0,2.0,72,0.00,,,0.00,Wunderground v.1.12,2013-02-08 03:49:00,
2013-02-07 23:00:00,35.8,27.3,30.20,NE,44,0.0,2.0,71,0.00,,,0.00,Wunderground v.1.12,2013-02-08 04:00:00,
2013-02-07 23:10:00,35.6,27.1,30.19,NE,40,1.0,1.0,71,0.00,,,0.00,Wunderground v.1.12,2013-02-08 04:10:00,
2013-02-07 23:19:00,35.6,27.5,30.19,NE,56,0.0,2.0,72,0.00,,,0.00,Wunderground v.1.12,2013-02-08 04:19:00,
2013-02-07 23:29:00,35.5,27.0,30.18,NNE,18,0.0,2.0,71,0.00,,,0.00,Wunderground v.1.12,2013-02-08 04:29:00,
2013-02-07 23:40:00,35.5,27.0,30.17,South,169,0.0,2.0,71,0.00,,,0.00,Wunderground v.1.12,2013-02-08 04:40:00,
2013-02-07 23:50:00,35.5,27.0,30.17,North,5,0.0,2.0,71,0.00,,,0.00,Wunderground v.1.12,2013-02-08 04:50:00,